Time;durP1;ratioP1;P1;durP2;ratioP2;P2;SDS_P1;SDS_P2;PMS_P1;PMS_P2;Temp;Humidity;BMP_temperature;BMP_pressure;BME280_temperature;BME280_humidity;BME280_pressure;Samples;Min_cycle;Max_cycle;Signal;HPM_P1;HPM_P2
2022/04/25 00:01:22;;;;;;;25.85;19.42;;;;;;;7.36;100.00;162488.50;5031161;28;20042;-58
2022/04/25 00:03:48;;;;;;;20.20;16.23;;;;;;;7.34;100.00;162483.09;5032598;28;20046;-58
2022/04/25 00:06:13;;;;;;;18.27;14.50;;;;;;;7.38;100.00;162495.22;5031715;28;20037;-58
2022/04/25 00:08:38;;;;;;;20.83;15.32;;;;;;;7.42;100.00;162504.66;5032446;28;20052;-57
2022/04/25 00:11:04;;;;;;;22.58;15.68;;;;;;;7.42;100.00;162506.03;5031107;28;20037;-58
2022/04/25 00:13:30;;;;;;;21.27;16.35;;;;;;;7.45;100.00;162514.06;5032238;28;20029;-58
2022/04/25 00:15:55;;;;;;;22.63;15.98;;;;;;;7.46;100.00;162515.44;5030727;28;20463;-58
2022/04/25 00:18:22;;;;;;;33.08;19.80;;;;;;;7.49;100.00;162522.19;5032130;28;20028;-58
2022/04/25 00:20:47;;;;;;;20.33;16.85;;;;;;;7.48;100.00;162520.84;5030942;28;20029;-58
2022/04/25 00:23:13;;;;;;;18.65;16.67;;;;;;;7.48;100.00;162520.84;5032506;28;20021;-58
2022/04/25 00:25:38;;;;;;;27.58;17.85;;;;;;;7.45;100.00;162512.75;5030829;28;20052;-58
2022/04/25 00:28:05;;;;;;;23.90;17.13;;;;;;;7.44;100.00;162510.06;5032003;28;20049;-58
2022/04/25 00:30:31;;;;;;;23.40;15.90;;;;;;;7.41;100.00;162502.00;5032199;28;20037;-58
2022/04/25 00:32:57;;;;;;;20.00;17.05;;;;;;;7.39;100.00;162496.59;5031139;28;20046;-58
2022/04/25 00:35:23;;;;;;;19.95;14.98;;;;;;;7.37;100.00;162491.19;5031675;28;20029;-58
2022/04/25 00:37:49;;;;;;;25.23;18.00;;;;;;;7.35;100.00;162485.78;5030038;28;20243;-58
2022/04/25 00:40:17;;;;;;;18.40;15.50;;;;;;;7.35;100.00;162487.16;5032498;28;20032;-57
2022/04/25 00:42:42;;;;;;;23.17;17.23;;;;;;;7.33;100.00;162480.44;5030199;28;20397;-57
2022/04/25 00:45:12;;;;;;;23.00;15.40;;;;;;;7.28;100.00;162469.63;5030997;28;20030;-57
2022/04/25 00:47:38;;;;;;;24.95;16.45;;;;;;;7.32;100.00;162479.06;5030375;28;20500;-57
2022/04/25 00:50:04;;;;;;;18.08;16.15;;;;;;;7.28;100.00;162469.63;5032057;28;20105;-57
2022/04/25 00:52:30;;;;;;;27.83;16.15;;;;;;;7.27;100.00;162466.94;5030300;28;20461;-58
2022/04/25 00:54:57;;;;;;;23.88;17.40;;;;;;;7.27;100.00;162466.94;5032142;28;20034;-57
2022/04/25 00:57:24;;;;;;;23.67;18.93;;;;;;;7.26;100.00;162464.22;5029644;28;20046;-57
2022/04/25 00:59:49;;;;;;;20.75;17.02;;;;;;;7.25;100.00;162460.22;5031813;28;20060;-57
2022/04/25 01:02:14;;;;;;;29.70;17.98;;;;;;;7.24;100.00;162458.88;5030491;28;20492;-57
2022/04/25 01:04:40;;;;;;;21.65;18.02;;;;;;;7.19;100.00;162445.38;5031284;28;20385;-57
2022/04/25 01:07:05;;;;;;;22.20;16.27;;;;;;;7.17;100.00;162440.03;5030281;28;20095;-57
2022/04/25 01:09:30;;;;;;;22.42;19.23;;;;;;;7.14;100.00;162431.94;5031297;28;20473;-57
2022/04/25 01:11:58;;;;;;;22.15;18.55;;;;;;;7.14;100.00;162431.94;5029789;28;20463;-57
2022/04/25 01:14:24;;;;;;;23.40;18.73;;;;;;;7.12;100.00;162426.53;5030981;28;20025;-57
2022/04/25 01:16:50;;;;;;;34.35;21.90;;;;;;;7.15;100.00;162435.94;5030038;28;20468;-57
2022/04/25 01:19:15;;;;;;;20.88;17.98;;;;;;;7.16;100.00;162437.31;5031085;28;20380;-57
2022/04/25 01:21:50;;;;;;;23.05;19.10;;;;;;;7.27;100.00;162466.94;5029544;28;20041;-57
2022/04/25 01:27:18;;;;;;;25.90;19.52;;;;;;;7.39;100.00;162496.59;5029624;28;20094;-57
2022/04/25 01:29:45;;;;;;;23.10;19.73;;;;;;;7.42;100.00;162504.66;5011663;28;20030;-57
2022/04/25 01:32:11;;;;;;;24.85;20.75;;;;;;;7.43;100.00;162507.34;5010268;28;20599;-57
2022/04/25 01:34:37;;;;;;;23.63;20.88;;;;;;;7.38;100.00;162495.22;5014227;28;20033;-57
2022/04/25 01:37:14;;;;;;;21.70;19.30;;;;;;;7.34;100.00;162484.47;5026968;28;20041;-56
2022/04/25 01:39:42;;;;;;;28.60;21.85;;;;;;;7.28;100.00;162468.31;5029166;28;20041;-56
2022/04/25 01:42:08;;;;;;;;;;;;;;;7.21;100.00;162450.78;5029674;28;20049;-57
2022/04/25 01:44:34;;;;;;;25.73;21.02;;;;;;;7.16;100.00;162437.31;5029883;28;19927;-57
2022/04/25 01:47:00;;;;;;;24.60;22.00;;;;;;;7.08;100.00;162415.78;5029534;28;20056;-56
2022/04/25 01:49:25;;;;;;;35.50;24.60;;;;;;;7.02;100.00;162399.63;5029962;28;20021;-58
2022/04/25 01:51:51;;;;;;;27.08;24.20;;;;;;;7.00;100.00;162395.53;5029464;28;20041;-58
2022/04/25 01:54:26;;;;;;;24.70;21.58;;;;;;;6.95;100.00;162382.09;5031221;28;20104;-58
2022/04/25 01:56:55;;;;;;;37.95;28.52;;;;;;;6.96;100.00;162386.13;5029084;28;20033;-57
2022/04/25 01:59:22;;;;;;;34.45;25.23;;;;;;;6.95;100.00;162383.47;5030633;28;20025;-58
2022/04/25 02:01:47;;;;;;;29.67;23.88;;;;;;;6.95;100.00;162383.47;5029300;28;20047;-58
2022/04/25 02:04:13;;;;;;;29.85;25.58;;;;;;;6.97;100.00;162388.81;5029665;28;20021;-58
2022/04/25 02:06:38;;;;;;;31.70;24.90;;;;;;;7.02;100.00;162399.63;5028921;28;20433;-57
2022/04/25 02:09:03;;;;;;;28.80;22.40;;;;;;;7.00;100.00;162395.53;5030298;28;20396;-57
2022/04/25 02:11:31;;;;;;;40.08;25.85;;;;;;;6.99;100.00;162394.22;5028646;28;20037;-57
2022/04/25 02:13:56;;;;;;;31.75;26.13;;;;;;;6.93;100.00;162378.06;5030908;28;20017;-57
2022/04/25 02:16:22;;;;;;;32.55;25.33;;;;;;;6.96;100.00;162386.13;5028940;28;20041;-58
2022/04/25 02:18:48;;;;;;;34.47;24.63;;;;;;;6.95;100.00;162383.47;5030016;28;20037;-57
2022/04/25 02:21:14;;;;;;;33.03;25.80;;;;;;;6.93;100.00;162378.06;5029158;28;20045;-57
2022/04/25 02:23:40;;;;;;;31.70;26.58;;;;;;;6.94;100.00;162380.78;5030085;28;20061;-57
2022/04/25 02:26:06;;;;;;;32.97;26.10;;;;;;;6.98;100.00;162390.19;5028373;28;20389;-58
2022/04/25 02:28:33;;;;;;;33.55;26.15;;;;;;;7.08;100.00;162415.78;5030513;28;20588;-58
2022/04/25 02:30:58;;;;;;;36.63;29.05;;;;;;;7.14;100.00;162431.94;5029001;28;20115;-58
2022/04/25 02:33:24;;;;;;;29.95;26.38;;;;;;;7.19;100.00;162445.38;5029946;28;20492;-58
2022/04/25 02:35:49;;;;;;;32.88;27.83;;;;;;;7.22;100.00;162453.47;5028631;28;20427;-58
2022/04/25 02:38:15;;;;;;;31.63;27.65;;;;;;;7.25;100.00;162461.59;5030409;28;20021;-58
2022/04/25 02:40:41;;;;;;;29.23;25.42;;;;;;;7.25;100.00;162461.59;5028116;28;20053;-58
2022/04/25 02:43:06;;;;;;;34.22;26.33;;;;;;;7.27;100.00;162466.94;5030278;28;20357;-58
2022/04/25 02:45:31;;;;;;;37.88;32.08;;;;;;;7.32;100.00;162477.75;5030094;28;20025;-57
2022/04/25 02:47:57;;;;;;;33.83;27.77;;;;;;;7.33;100.00;162481.75;5028557;28;20104;-58
2022/04/25 02:50:22;;;;;;;27.75;24.92;;;;;;;7.38;100.00;162495.22;5030129;28;20037;-58
2022/04/25 02:52:51;;;;;;;41.80;28.13;;;;;;;7.38;100.00;162493.91;5028673;28;20099;-58
2022/04/25 02:55:16;;;;;;;35.65;29.05;;;;;;;7.42;100.00;162506.03;5029452;28;20507;-58
2022/04/25 02:57:41;;;;;;;31.75;23.98;;;;;;;7.44;100.00;162511.44;5028438;28;20041;-58
2022/04/25 03:00:07;;;;;;;28.25;24.70;;;;;;;7.45;100.00;162512.75;5029834;28;20049;-58
2022/04/25 03:02:32;;;;;;;30.58;27.25;;;;;;;7.45;100.00;162512.75;5031617;28;20389;-58
2022/04/25 03:04:57;;;;;;;28.25;24.10;;;;;;;7.48;100.00;162520.84;5033696;28;20033;-58
2022/04/25 03:07:23;;;;;;;26.00;21.65;;;;;;;7.50;100.00;162526.19;5031972;28;20046;-57
2022/04/25 03:09:48;;;;;;;28.52;24.05;;;;;;;7.50;100.00;162526.19;5033581;28;20400;-58
2022/04/25 03:12:13;;;;;;;30.65;24.15;;;;;;;7.53;100.00;162534.31;5032545;28;20037;-58
2022/04/25 03:14:39;;;;;;;28.52;25.02;;;;;;;7.44;100.00;162510.06;5033560;28;20346;-58
2022/04/25 03:17:05;;;;;;;27.08;23.73;;;;;;;7.42;100.00;162504.66;5031367;28;20048;-57
2022/04/25 03:19:30;;;;;;;29.00;24.88;;;;;;;7.44;100.00;162510.06;5033813;28;20033;-57
2022/04/25 03:21:55;;;;;;;28.05;25.20;;;;;;;7.46;100.00;162515.44;5032318;28;20044;-58
2022/04/25 03:24:21;;;;;;;24.05;21.40;;;;;;;7.38;100.00;162493.91;5032708;28;20037;-58
2022/04/25 03:26:46;;;;;;;28.35;21.95;;;;;;;7.40;100.00;162500.63;5032242;28;20467;-58
2022/04/25 03:29:13;;;;;;;26.65;21.75;;;;;;;7.40;100.00;162499.28;5033715;28;20033;-58
2022/04/25 03:31:39;;;;;;;25.02;21.77;;;;;;;7.39;100.00;162496.59;5031621;28;20036;-57
2022/04/25 03:34:04;;;;;;;26.55;21.95;;;;;;;7.35;100.00;162485.78;5033587;28;20025;-58
2022/04/25 03:36:31;;;;;;;27.75;21.15;;;;;;;7.36;100.00;162488.50;5031148;28;20436;-58
2022/04/25 03:38:57;;;;;;;23.17;20.75;;;;;;;7.34;100.00;162483.09;5024729;28;20366;-58
2022/04/25 03:41:22;;;;;;;25.55;21.25;;;;;;;7.31;100.00;162476.38;5023212;28;20092;-58
2022/04/25 03:43:48;;;;;;;25.63;21.17;;;;;;;7.36;100.00;162488.50;5025578;28;20068;-58
2022/04/25 03:46:13;;;;;;;28.88;21.23;;;;;;;7.38;100.00;162493.91;5024903;28;20037;-58
2022/04/25 03:48:41;;;;;;;33.50;22.55;;;;;;;7.34;100.00;162483.09;5022317;28;20083;-57
2022/04/25 03:51:06;;;;;;;29.42;23.25;;;;;;;7.35;100.00;162487.16;5022901;28;20033;-58
2022/04/25 03:53:32;;;;;;;28.25;22.90;;;;;;;7.31;100.00;162476.38;5023860;28;20385;-58
2022/04/25 03:58:41;;;;;;;30.95;24.42;;;;;;;7.26;100.00;162464.22;5023651;28;20175;-58
2022/04/25 04:01:07;;;;;;;28.92;24.50;;;;;;;7.29;100.00;162472.34;5019840;28;20041;-58
2022/04/25 04:03:34;;;;;;;36.92;25.50;;;;;;;7.29;100.00;162472.34;5024007;28;20025;-58
2022/04/25 04:06:00;;;;;;;34.77;30.07;;;;;;;7.28;100.00;162469.63;5024777;28;20049;-58
2022/04/25 04:08:25;;;;;;;40.80;28.75;;;;;;;7.26;100.00;162464.22;5022784;28;20052;-57
2022/04/25 04:10:51;;;;;;;43.63;31.08;;;;;;;7.25;100.00;162460.22;5020926;28;20026;-59
2022/04/25 04:13:16;;;;;;;41.03;29.80;;;;;;;7.21;100.00;162450.78;5025014;28;20049;-57
2022/04/25 04:15:42;;;;;;;34.47;27.40;;;;;;;7.22;100.00;162453.47;5030269;28;20084;-57
2022/04/25 04:18:07;;;;;;;39.05;31.35;;;;;;;7.19;100.00;162445.38;5033109;28;20714;-57
2022/04/25 04:20:33;;;;;;;40.78;28.77;;;;;;;7.12;100.00;162426.53;5031243;28;20051;-57
2022/04/25 04:22:59;;;;;;;45.90;31.30;;;;;;;7.18;100.00;162441.34;5031307;28;20104;-57
2022/04/25 04:25:25;;;;;;;41.50;27.92;;;;;;;7.22;100.00;162453.47;5032474;28;20029;-57
2022/04/25 04:27:50;;;;;;;35.17;27.75;;;;;;;7.23;100.00;162456.19;5031381;28;20038;-57
2022/04/25 04:30:17;;;;;;;36.22;27.00;;;;;;;7.21;100.00;162450.78;5032570;28;20075;-57
2022/04/25 04:32:43;;;;;;;35.90;28.65;;;;;;;7.28;100.00;162469.63;5026285;28;20041;-57
2022/04/25 04:35:10;;;;;;;45.28;28.95;;;;;;;7.27;100.00;162465.63;5030910;28;20388;-57
2022/04/25 04:37:37;;;;;;;32.05;26.60;;;;;;;7.24;100.00;162457.50;5022648;28;20081;-57
2022/04/25 04:42:47;;;;;;;40.65;31.02;;;;;;;7.21;100.00;162450.78;5027968;28;20106;-57
2022/04/25 04:45:12;;;;;;;36.50;28.08;;;;;;;7.15;100.00;162434.63;5031263;28;20045;-57
2022/04/25 04:47:39;;;;;;;38.00;29.45;;;;;;;7.20;100.00;162446.75;5030608;28;20057;-57
2022/04/25 04:50:14;;;;;;;37.55;30.58;;;;;;;7.26;100.00;162462.91;5032133;28;20021;-57
2022/04/25 04:52:41;;;;;;;36.70;26.92;;;;;;;7.24;100.00;162457.50;5030004;28;20103;-57
2022/04/25 04:55:06;;;;;;;44.08;31.17;;;;;;;7.19;100.00;162445.38;5032658;28;20028;-57
2022/04/25 04:57:32;;;;;;;44.05;31.73;;;;;;;7.19;100.00;162444.06;5029096;28;20444;-58
2022/04/25 04:59:57;;;;;;;38.85;31.27;;;;;;;7.11;100.00;162423.88;5031535;28;20021;-57
2022/04/25 05:02:23;;;;;;;52.65;39.15;;;;;;;7.10;100.00;162421.19;5030371;28;20049;-57
2022/04/25 05:04:49;;;;;;;36.97;31.95;;;;;;;7.12;100.00;162426.53;5031893;28;20235;-57
2022/04/25 05:07:15;;;;;;;33.95;30.13;;;;;;;7.07;100.00;162413.06;5030030;28;20048;-57
2022/04/25 05:09:40;;;;;;;52.47;33.42;;;;;;;7.07;100.00;162414.44;5031893;28;20033;-57
2022/04/25 05:12:06;;;;;;;43.63;31.80;;;;;;;7.06;100.00;162410.38;5030579;28;20484;-57
2022/04/25 05:14:32;;;;;;;43.67;35.33;;;;;;;7.05;100.00;162409.03;5031071;28;20070;-57
2022/04/25 05:16:57;;;;;;;57.35;36.13;;;;;;;7.05;100.00;162407.66;5030143;28;20033;-57
2022/04/25 05:19:22;;;;;;;48.85;36.20;;;;;;;7.07;100.00;162413.06;5031260;28;20032;-57
2022/04/25 05:21:48;;;;;;;52.67;38.13;;;;;;;7.05;100.00;162409.03;5029826;28;20038;-57
2022/04/25 05:24:13;;;;;;;48.30;34.67;;;;;;;7.02;100.00;162399.63;5031008;28;20496;-57
2022/04/25 05:26:38;;;;;;;47.90;38.55;;;;;;;7.04;100.00;162406.34;5029943;28;20041;-56
2022/04/25 05:29:04;;;;;;;47.15;34.58;;;;;;;7.05;100.00;162409.03;5031641;28;20477;-56
2022/04/25 05:31:29;;;;;;;45.45;35.30;;;;;;;7.05;100.00;162409.03;5021653;28;20390;-56
2022/04/25 05:33:54;;;;;;;48.13;36.17;;;;;;;7.07;100.00;162413.06;5011747;28;20018;-56
2022/04/25 05:36:20;;;;;;;48.38;36.00;;;;;;;7.08;100.00;162415.78;5010036;28;20772;-56
2022/04/25 05:38:45;;;;;;;44.75;33.33;;;;;;;7.06;100.00;162410.38;5011306;28;20382;-56
2022/04/25 05:41:11;;;;;;;46.88;34.33;;;;;;;7.05;100.00;162409.03;5010242;28;20167;-57
2022/04/25 05:43:39;;;;;;;47.78;39.03;;;;;;;7.04;100.00;162406.34;5011467;28;20026;-57
2022/04/25 05:46:05;;;;;;;48.45;34.47;;;;;;;7.05;100.00;162407.66;5009881;28;20095;-57
2022/04/25 05:53:59;;;;;;;44.45;37.92;;;;;;;7.03;100.00;162402.31;5011593;28;20096;-55
2022/04/25 05:56:24;;;;;;;45.13;35.13;;;;;;;7.06;100.00;162410.38;5009556;28;20038;-55
2022/04/25 05:58:50;;;;;;;47.03;37.97;;;;;;;7.07;100.00;162413.06;5011254;28;20092;-55
2022/04/25 06:01:15;;;;;;;53.78;39.95;;;;;;;7.08;100.00;162415.78;5009700;28;20048;-55
2022/04/25 06:03:40;;;;;;;51.28;40.03;;;;;;;6.95;100.00;162382.09;5011078;28;20030;-55
2022/04/25 06:06:06;;;;;;;50.13;40.10;;;;;;;7.01;100.00;162396.91;5009832;28;20914;-55
2022/04/25 06:08:31;;;;;;;47.17;37.80;;;;;;;7.01;100.00;162398.25;5010733;28;20022;-55
2022/04/25 06:10:57;;;;;;;45.65;36.15;;;;;;;6.98;100.00;162391.53;5009603;28;20034;-55
2022/04/25 06:13:24;;;;;;;48.85;36.75;;;;;;;6.93;100.00;162378.06;5010963;28;20080;-55
2022/04/25 06:15:49;;;;;;;62.67;43.30;;;;;;;6.95;100.00;162383.47;5009401;28;20026;-55
2022/04/25 06:18:14;;;;;;;56.13;42.60;;;;;;;6.95;100.00;162383.47;5010957;28;20030;-55
2022/04/25 06:20:40;;;;;;;52.83;41.70;;;;;;;6.89;100.00;162367.28;5009423;28;20037;-55
2022/04/25 06:23:05;;;;;;;53.17;38.05;;;;;;;6.86;100.00;162359.22;5010616;28;20022;-55
2022/04/25 06:25:31;;;;;;;60.45;38.88;;;;;;;6.81;100.00;162345.78;5010759;28;20034;-55
2022/04/25 06:28:00;;;;;;;51.85;37.65;;;;;;;6.74;100.00;162326.94;5009531;28;20038;-55
2022/04/25 06:30:29;;;;;;;52.67;38.25;;;;;;;6.79;100.00;162340.38;5010449;28;20041;-55
2022/04/25 06:32:54;;;;;;;50.60;37.35;;;;;;;6.74;100.00;162326.94;5009430;28;20169;-55
2022/04/25 06:35:20;;;;;;;47.92;36.22;;;;;;;6.75;100.00;162330.94;5010165;28;20038;-55
2022/04/25 06:37:46;;;;;;;58.35;41.33;;;;;;;6.72;100.00;162322.84;5008793;28;20456;-55
2022/04/25 06:40:12;;;;;;;53.90;39.50;;;;;;;6.72;100.00;162321.53;5010822;28;20056;-54
2022/04/25 06:42:37;;;;;;;50.92;37.20;;;;;;;6.73;100.00;162325.53;5009032;28;20077;-55
2022/04/25 06:45:03;;;;;;;56.72;40.33;;;;;;;6.67;100.00;162310.72;5010057;28;20398;-54
2022/04/25 06:47:29;;;;;;;64.40;37.08;;;;;;;6.70;100.00;162317.50;5007480;28;20038;-55
2022/04/25 06:49:54;;;;;;;52.20;40.05;;;;;;;6.70;100.00;162316.13;5010623;28;20053;-55
2022/04/25 06:52:20;;;;;;;50.03;37.65;;;;;;;6.72;100.00;162321.53;5008863;28;20048;-55
2022/04/25 06:54:46;;;;;;;47.15;38.60;;;;;;;6.73;100.00;162324.22;5010901;28;20033;-55
2022/04/25 06:57:11;;;;;;;68.22;43.10;;;;;;;6.77;100.00;162334.97;5009421;28;20038;-55
2022/04/25 06:59:37;;;;;;;72.93;41.80;;;;;;;6.73;100.00;162325.53;5006011;28;20025;-55
2022/04/25 07:02:02;;;;;;;64.75;40.50;;;;;;;6.75;100.00;162329.56;5007777;28;20046;-55
2022/04/25 07:04:28;;;;;;;51.35;41.20;;;;;;;6.78;100.00;162337.66;5009998;28;20041;-54
2022/04/25 07:06:53;;;;;;;57.35;43.42;;;;;;;6.99;100.00;162394.22;4989116;28;20042;-54
2022/04/25 07:09:19;;;;;;;48.67;37.78;;;;;;;7.06;100.00;162411.75;4994750;28;20385;-54
2022/04/25 07:11:45;;;;;;;51.60;36.05;;;;;;;7.10;100.00;162421.19;5008775;28;20038;-55
2022/04/25 07:14:12;;;;;;;48.55;34.55;;;;;;;7.20;100.00;162448.06;5009781;28;20026;-55
2022/04/25 07:16:39;;;;;;;49.72;36.58;;;;;;;7.33;100.00;162480.44;5008662;28;20469;-54
2022/04/25 07:19:06;;;;;;;44.58;33.33;;;;;;;7.44;100.00;162511.44;4990945;28;20437;-54
2022/04/25 07:29:47;;;;;;;44.22;31.70;;;;;;;7.83;100.00;162612.44;4990241;28;20042;-54
2022/04/25 07:32:13;;;;;;;40.38;29.30;;;;;;;7.98;100.00;162650.19;4989385;28;20039;-55
2022/04/25 07:34:39;;;;;;;43.65;28.90;;;;;;;8.02;100.00;162660.94;4990397;28;20019;-54
2022/04/25 07:37:04;;;;;;;35.33;28.02;;;;;;;8.01;100.00;162658.22;4988738;28;20042;-54
2022/04/25 07:39:30;;;;;;;38.88;28.77;;;;;;;7.84;100.00;162613.78;4990473;28;20034;-54
2022/04/25 07:41:55;;;;;;;36.15;29.67;;;;;;;7.83;100.00;162612.44;4989125;28;20462;-54
2022/04/25 07:44:20;;;;;;;37.45;24.83;;;;;;;7.83;100.00;162612.44;4990130;28;20022;-55
2022/04/25 07:46:46;;;;;;;39.80;26.15;;;;;;;7.94;100.00;162642.06;4989772;28;20081;-54
2022/04/25 07:49:12;;;;;;;44.78;27.52;;;;;;;7.93;100.00;162639.38;5001318;28;20022;-54
2022/04/25 07:51:41;;;;;;;38.75;28.50;;;;;;;7.96;100.00;162646.16;5011340;28;20463;-55
2022/04/25 07:54:12;;;;;;;38.03;27.90;;;;;;;7.96;100.00;162644.78;5013455;28;20393;-54
2022/04/25 07:56:38;;;;;;;39.28;28.27;;;;;;;8.01;100.00;162658.22;5011969;28;20133;-54
2022/04/25 07:59:05;;;;;;;44.95;29.67;;;;;;;8.06;100.00;162671.75;5013202;28;20025;-55
2022/04/25 08:01:31;;;;;;;42.05;27.45;;;;;;;7.90;100.00;162631.31;5011625;28;20041;-54
2022/04/25 08:03:56;;;;;;;29.83;25.98;;;;;;;7.83;100.00;162612.44;5013317;28;20030;-54
2022/04/25 08:06:22;;;;;;;43.92;31.17;;;;;;;7.84;100.00;162615.16;5011491;28;20044;-54
2022/04/25 08:08:49;;;;;;;33.65;23.65;;;;;;;7.96;100.00;162644.78;5013712;28;20029;-55
2022/04/25 08:11:14;;;;;;;38.22;27.23;;;;;;;7.97;100.00;162648.81;5012049;28;20481;-55
2022/04/25 08:19:07;;;;;;;32.25;26.42;;;;;;;7.77;100.00;162597.63;5013394;28;20044;-54
2022/04/25 08:21:32;;;;;;;38.75;25.40;;;;;;;7.75;100.00;162590.88;5011150;28;20034;-55
2022/04/25 08:23:58;;;;;;;36.03;25.88;;;;;;;7.80;100.00;162604.34;5013280;28;20018;-54
2022/04/25 08:26:24;;;;;;;38.85;24.00;;;;;;;7.66;100.00;162568.00;5011365;28;20512;-54
2022/04/25 08:28:51;;;;;;;33.92;27.48;;;;;;;7.72;100.00;162582.78;5012748;28;20026;-54
2022/04/25 08:31:16;;;;;;;38.40;25.15;;;;;;;7.91;100.00;162634.00;5011559;28;20030;-54
2022/04/25 08:33:43;;;;;;;31.77;24.90;;;;;;;8.01;100.00;162659.63;5012830;28;20057;-54
2022/04/25 08:36:09;;;;;;;28.95;24.48;;;;;;;7.89;100.00;162627.28;5011119;28;20487;-53
2022/04/25 08:38:34;;;;;;;31.55;24.45;;;;;;;7.85;100.00;162617.84;5012410;28;20136;-54
2022/04/25 08:41:01;;;;;;;34.38;24.70;;;;;;;7.85;100.00;162617.84;5011419;28;20451;-53
2022/04/25 08:43:28;;;;;;;41.30;24.50;;;;;;;8.01;100.00;162658.22;5011673;28;20026;-54
2022/04/25 08:45:55;;;;;;;31.40;22.48;;;;;;;8.08;100.00;162677.09;5011372;28;20055;-54
2022/04/25 08:48:21;;;;;;;30.98;22.75;;;;;;;8.12;100.00;162687.91;5012636;28;20025;-55
2022/04/25 08:50:49;;;;;;;30.83;21.52;;;;;;;8.16;100.00;162698.66;5010637;28;20481;-54
2022/04/25 08:53:15;;;;;;;33.42;21.05;;;;;;;8.11;100.00;162685.19;5008278;28;20026;-54
2022/04/25 08:55:41;;;;;;;30.40;21.02;;;;;;;8.29;100.00;162732.38;5010134;28;20517;-54
2022/04/25 08:58:06;;;;;;;29.35;21.73;;;;;;;8.36;100.00;162749.91;5011464;28;20060;-54
2022/04/25 09:00:32;;;;;;;32.78;23.35;;;;;;;8.43;100.00;162768.78;5011463;28;20468;-54
2022/04/25 09:02:57;;;;;;;34.22;19.55;;;;;;;8.38;100.00;162755.25;5010495;28;20057;-54
2022/04/25 09:05:23;;;;;;;29.58;19.25;;;;;;;8.34;100.00;162745.84;5011326;28;20049;-55
2022/04/25 09:07:48;;;;;;;29.17;18.63;;;;;;;8.23;100.00;162717.53;5010580;28;20452;-54
2022/04/25 09:10:16;;;;;;;36.20;21.70;;;;;;;8.17;100.00;162701.38;5012108;28;20113;-54
2022/04/25 09:12:44;;;;;;;30.05;19.27;;;;;;;8.19;100.00;162706.78;5027282;28;20073;-54
2022/04/25 09:15:09;;;;;;;31.88;20.88;;;;;;;8.16;100.00;162697.34;5031756;28;20049;-54
2022/04/25 09:17:39;;;;;;;20.45;16.15;;;;;;;8.09;100.00;162679.81;5013293;28;20473;-54
2022/04/25 09:20:09;;;;;;;28.55;18.98;;;;;;;8.00;100.00;162655.59;5011597;28;20033;-55
2022/04/25 09:22:37;;;;;;;46.92;20.65;;;;;;;7.98;100.00;162650.19;5010125;28;20041;-54
2022/04/25 09:25:15;;;;;;;25.58;18.98;;;;;;;8.01;100.00;162658.22;5011872;28;20038;-54
2022/04/25 09:27:41;;;;;;;27.70;20.33;;;;;;;8.00;100.00;162656.91;5010335;28;20485;-54
2022/04/25 09:30:17;;;;;;;21.67;16.25;;;;;;;8.16;100.00;162697.34;5012264;28;20113;-54
2022/04/25 09:32:43;;;;;;;34.55;17.92;;;;;;;8.22;100.00;162714.88;5010109;28;20543;-54
2022/04/25 09:35:32;;;;;;;23.85;18.08;;;;;;;8.59;100.00;162809.28;5011288;28;20528;-54
2022/04/25 09:38:00;;;;;;;19.13;15.75;;;;;;;8.68;100.00;162834.88;5005675;28;20092;-54
2022/04/25 09:40:28;;;;;;;20.80;14.77;;;;;;;8.77;100.00;162856.47;5011213;28;20029;-54
2022/04/25 09:43:15;;;;;;;20.92;15.32;;;;;;;8.81;100.00;162867.22;5009667;28;20042;-54
2022/04/25 09:45:44;;;;;;;26.65;16.77;;;;;;;8.77;100.00;162857.78;5008967;28;20075;-54
2022/04/25 09:48:15;;;;;;;21.77;17.70;;;;;;;8.78;100.00;162860.50;5011135;28;20084;-54
2022/04/25 09:50:41;;;;;;;29.10;16.92;;;;;;;8.92;100.00;162895.53;5009916;28;20049;-55
2022/04/25 09:53:08;;;;;;;20.27;15.98;;;;;;;8.81;100.00;162868.59;5011410;28;20504;-54
2022/04/25 09:55:36;;;;;;;35.03;16.92;;;;;;;8.87;100.00;162884.78;5011227;28;20021;-54
2022/04/25 09:58:18;;;;;;;32.65;18.20;;;;;;;8.67;100.00;162830.84;5029353;28;20060;-54
2022/04/25 10:00:44;;;;;;;31.90;18.17;;;;;;;8.67;100.00;162832.19;5029223;28;20049;-54
2022/04/25 10:03:10;;;;;;;27.20;18.50;;;;;;;8.73;100.00;162847.03;5030380;28;20485;-54
2022/04/25 10:05:40;;;;;;;19.45;16.02;;;;;;;8.86;100.00;162882.06;5029211;28;20029;-54
2022/04/25 10:08:08;;;;;;;31.58;19.92;;;;;;;9.05;100.00;162930.59;5029808;28;20029;-54
2022/04/25 10:10:34;;;;;;;26.35;17.98;;;;;;;9.02;100.00;162922.53;5028118;28;20033;-53
2022/04/25 10:13:00;;;;;;;30.67;18.15;;;;;;;9.18;100.00;162965.69;5031144;28;20051;-54
2022/04/25 10:15:26;;;;;;;28.75;17.63;;;;;;;9.27;100.00;162987.28;5030258;28;20083;-54
2022/04/25 10:17:53;;;;;;;27.05;16.52;;;;;;;9.34;100.00;163006.16;5028766;28;20037;-54
2022/04/25 10:20:18;;;;;;;21.10;17.13;;;;;;;9.27;100.00;162987.28;5030662;28;20431;-55
2022/04/25 10:22:44;;;;;;;20.95;16.23;;;;;;;9.39;100.00;163018.25;5028720;28;20037;-55
2022/04/25 10:25:10;;;;;;;27.10;18.17;;;;;;;9.47;100.00;163041.22;5030257;28;20388;-56
2022/04/25 10:27:42;;;;;;;23.70;16.58;;;;;;;9.44;100.00;163033.09;5028596;28;20041;-55
2022/04/25 10:30:10;;;;;;;33.85;20.50;;;;;;;9.29;100.00;162992.63;5016942;28;20067;-54
2022/04/25 10:32:35;;;;;;;25.40;17.92;;;;;;;9.24;100.00;162980.47;5017638;28;20073;-55
2022/04/25 10:35:01;;;;;;;26.65;19.83;;;;;;;9.24;100.00;162980.47;5029676;28;20116;-55
2022/04/25 10:37:34;;;;;;;33.38;21.17;;;;;;;9.30;100.00;162995.34;5027842;28;20128;-55
2022/04/25 10:40:03;;;;;;;27.80;21.58;;;;;;;9.14;100.00;162954.88;5030092;28;20079;-55
2022/04/25 10:45:12;;;;;;;33.42;18.52;;;;;;;9.24;100.00;162979.16;5030321;28;20064;-55
2022/04/25 10:47:53;;;;;;;26.35;18.10;;;;;;;9.19;100.00;162968.38;5028380;28;20404;-54
2022/04/25 10:50:19;;;;;;;22.63;18.65;;;;;;;9.21;100.00;162973.75;5030723;28;20056;-54
2022/04/25 10:52:54;;;;;;;36.28;21.30;;;;;;;9.21;100.00;162972.41;5028801;28;20405;-55
2022/04/25 10:55:36;;;;;;;24.23;19.30;;;;;;;9.27;100.00;162987.28;5029987;28;20064;-55
2022/04/25 10:58:01;;;;;;;28.67;18.60;;;;;;;9.45;100.00;163034.47;5028780;28;20052;-55
2022/04/25 11:00:41;;;;;;;28.73;19.40;;;;;;;9.50;100.00;163049.28;5029837;28;20132;-54
2022/04/25 11:03:09;;;;;;;26.55;19.90;;;;;;;9.53;100.00;163056.06;5028420;28;20044;-55
2022/04/25 11:05:37;;;;;;;26.70;18.92;;;;;;;9.60;100.00;163074.94;5030260;28;20068;-55
2022/04/25 11:08:23;;;;;;;30.47;19.77;;;;;;;9.56;100.00;163062.78;5028763;28;20041;-54
2022/04/25 11:10:57;;;;;;;28.90;21.35;;;;;;;9.65;100.00;163087.03;5030003;28;20060;-54
2022/04/25 11:13:30;;;;;;;23.13;18.10;;;;;;;9.82;100.00;163132.94;5028502;28;20409;-54
2022/04/25 11:15:57;;;;;;;21.95;16.83;;;;;;;9.74;100.00;163111.34;5030125;28;20104;-55
2022/04/25 11:18:37;;;;;;;23.50;18.05;;;;;;;9.75;100.00;163112.72;5027839;28;20677;-54
2022/04/25 11:21:08;;;;;;;32.13;18.90;;;;;;;9.88;100.00;163146.41;5030506;28;20060;-54
2022/04/25 11:23:35;;;;;;;23.90;17.35;;;;;;;9.93;100.00;163159.94;5031500;28;20034;-54
2022/04/25 11:26:04;;;;;;;40.08;19.15;;;;;;;9.89;100.00;163149.09;5033366;28;20021;-54
2022/04/25 11:28:30;;;;;;;25.42;18.55;;;;;;;9.99;100.00;163176.09;5032112;28;20067;-55
2022/04/25 11:31:20;;;;;;;26.67;18.75;;;;;;;9.89;100.00;163149.09;5032190;28;20048;-54
2022/04/25 11:33:47;;;;;;;28.65;21.38;;;;;;;10.02;100.00;163182.84;5028126;28;20033;-55
2022/04/25 11:36:13;;;;;;;26.50;17.15;;;;;;;9.99;100.00;163177.44;5032439;28;20842;-55
2022/04/25 11:41:28;;;;;;;26.75;18.92;;;;;;;10.14;100.00;163215.22;5030702;28;20044;-54